Similk Beach, Washington
Current Conditions -  °F | °C
As of 9:56 AM on Tuesday 21 Oct 2014 (Local Time) from KNUW Reporting Station
Broken Clouds Broken Clouds  
Wind Chill: 60°   Ceiling: 1300
Heat Index: 60°   Visibility: 10mi
Dew Point: 53°   Wind: 18mph
Humidity: 78%   Direction: 140°SE
Pressure: 29.86"   Gusts: NA
Location:  48.4652°N, 122.617°W
Report Text: KNUW 211656Z 14016KT 10SM FEW008 BKN013 BKN080 BKN150 16/12 A2986 RMK AO2 SLP116 T01560117 $
Loading
Personal Weather Stations






























Interactive Weather Map New forecast layout! Learn more

10-Day Weather Forecast

Advertisements
Track Severe Weather on mobile